sensor_id;sensor_type;location;lat;lon;timestamp;temperature;humidity
78896;HTU21D;68284;59.124;37.910;2023-03-14T00:00:10;-5.03;69.94
78896;HTU21D;68284;59.124;37.910;2023-03-14T00:02:40;-5.02;70.20
78896;HTU21D;68284;59.124;37.910;2023-03-14T00:05:09;-5.02;70.18
78896;HTU21D;68284;59.124;37.910;2023-03-14T00:07:39;-5.00;70.24
78896;HTU21D;68284;59.124;37.910;2023-03-14T00:10:12;-4.97;70.39
78896;HTU21D;68284;59.124;37.910;2023-03-14T00:12:41;-4.95;70.35
78896;HTU21D;68284;59.124;37.910;2023-03-14T00:15:09;-4.94;70.33
78896;HTU21D;68284;59.124;37.910;2023-03-14T00:17:37;-4.91;70.45
78896;HTU21D;68284;59.124;37.910;2023-03-14T00:20:06;-4.89;70.52
78896;HTU21D;68284;59.124;37.910;2023-03-14T00:22:38;-4.87;70.69
78896;HTU21D;68284;59.124;37.910;2023-03-14T00:25:07;-4.87;70.74
78896;HTU21D;68284;59.124;37.910;2023-03-14T00:27:34;-4.85;70.79
78896;HTU21D;68284;59.124;37.910;2023-03-14T00:30:01;-4.83;70.93
78896;HTU21D;68284;59.124;37.910;2023-03-14T00:32:27;-4.83;70.91
78896;HTU21D;68284;59.124;37.910;2023-03-14T00:34:56;-4.83;70.97
78896;HTU21D;68284;59.124;37.910;2023-03-14T00:37:23;-4.82;71.14
78896;HTU21D;68284;59.124;37.910;2023-03-14T00:39:51;-4.82;71.19
78896;HTU21D;68284;59.124;37.910;2023-03-14T00:42:18;-4.81;71.22
78896;HTU21D;68284;59.124;37.910;2023-03-14T00:44:50;-4.81;71.35
78896;HTU21D;68284;59.124;37.910;2023-03-14T00:47:20;-4.82;71.32
78896;HTU21D;68284;59.124;37.910;2023-03-14T00:49:48;-4.83;71.34
78896;HTU21D;68284;59.124;37.910;2023-03-14T00:52:15;-4.83;71.38
78896;HTU21D;68284;59.124;37.910;2023-03-14T00:54:42;-4.84;71.45
78896;HTU21D;68284;59.124;37.910;2023-03-14T00:57:09;-4.85;71.52
78896;HTU21D;68284;59.124;37.910;2023-03-14T00:59:38;-4.86;71.32
78896;HTU21D;68284;59.124;37.910;2023-03-14T01:02:05;-4.86;71.40
78896;HTU21D;68284;59.124;37.910;2023-03-14T01:04:33;-4.85;71.36
78896;HTU21D;68284;59.124;37.910;2023-03-14T01:07:00;-4.86;71.35
78896;HTU21D;68284;59.124;37.910;2023-03-14T01:09:27;-4.86;71.41
78896;HTU21D;68284;59.124;37.910;2023-03-14T01:11:53;-4.85;71.42
78896;HTU21D;68284;59.124;37.910;2023-03-14T01:14:23;-4.84;71.42
78896;HTU21D;68284;59.124;37.910;2023-03-14T01:16:49;-4.83;71.43
78896;HTU21D;68284;59.124;37.910;2023-03-14T01:19:16;-4.79;71.38
78896;HTU21D;68284;59.124;37.910;2023-03-14T01:21:45;-4.76;71.33
78896;HTU21D;68284;59.124;37.910;2023-03-14T01:24:12;-4.73;71.28
78896;HTU21D;68284;59.124;37.910;2023-03-14T01:26:40;-4.71;71.22
78896;HTU21D;68284;59.124;37.910;2023-03-14T01:29:07;-4.68;70.95
78896;HTU21D;68284;59.124;37.910;2023-03-14T01:31:38;-4.65;70.88
78896;HTU21D;68284;59.124;37.910;2023-03-14T01:34:08;-4.64;70.78
78896;HTU21D;68284;59.124;37.910;2023-03-14T01:36:36;-4.58;70.74
78896;HTU21D;68284;59.124;37.910;2023-03-14T01:39:05;-4.56;70.68
78896;HTU21D;68284;59.124;37.910;2023-03-14T01:41:32;-4.54;70.54
78896;HTU21D;68284;59.124;37.910;2023-03-14T01:44:00;-4.53;70.50
78896;HTU21D;68284;59.124;37.910;2023-03-14T01:46:43;-4.50;70.37
78896;HTU21D;68284;59.124;37.910;2023-03-14T01:49:26;-4.45;70.23
78896;HTU21D;68284;59.124;37.910;2023-03-14T01:52:15;-4.44;70.11
78896;HTU21D;68284;59.124;37.910;2023-03-14T01:54:46;-4.43;70.00
78896;HTU21D;68284;59.124;37.910;2023-03-14T01:57:28;-4.43;69.98
78896;HTU21D;68284;59.124;37.910;2023-03-14T02:00:18;-4.43;69.86
78896;HTU21D;68284;59.124;37.910;2023-03-14T02:02:51;-4.42;69.77
78896;HTU21D;68284;59.124;37.910;2023-03-14T02:05:23;-4.44;69.72
78896;HTU21D;68284;59.124;37.910;2023-03-14T02:08:06;-4.43;69.68
78896;HTU21D;68284;59.124;37.910;2023-03-14T02:10:54;-4.44;69.62
78896;HTU21D;68284;59.124;37.910;2023-03-14T02:13:25;-4.43;69.59
78896;HTU21D;68284;59.124;37.910;2023-03-14T02:16:23;-4.42;69.50
78896;HTU21D;68284;59.124;37.910;2023-03-14T02:19:14;-4.43;69.50
78896;HTU21D;68284;59.124;37.910;2023-03-14T02:22:10;-4.44;69.43
78896;HTU21D;68284;59.124;37.910;2023-03-14T02:27:47;-4.44;69.43
78896;HTU21D;68284;59.124;37.910;2023-03-14T02:30:23;-4.45;69.45
78896;HTU21D;68284;59.124;37.910;2023-03-14T02:32:57;-4.44;69.53
78896;HTU21D;68284;59.124;37.910;2023-03-14T02:35:27;-4.44;69.58
78896;HTU21D;68284;59.124;37.910;2023-03-14T02:41:02;-4.43;69.62
78896;HTU21D;68284;59.124;37.910;2023-03-14T02:43:33;-4.38;69.67
78896;HTU21D;68284;59.124;37.910;2023-03-14T02:46:05;-4.36;69.67
78896;HTU21D;68284;59.124;37.910;2023-03-14T02:48:57;-4.28;69.63
78896;HTU21D;68284;59.124;37.910;2023-03-14T02:51:36;-4.21;69.52
78896;HTU21D;68284;59.124;37.910;2023-03-14T02:54:08;-4.13;69.39
78896;HTU21D;68284;59.124;37.910;2023-03-14T02:56:36;-4.06;69.35
78896;HTU21D;68284;59.124;37.910;2023-03-14T02:59:04;-3.98;69.28
78896;HTU21D;68284;59.124;37.910;2023-03-14T03:02:01;-3.87;69.16
78896;HTU21D;68284;59.124;37.910;2023-03-14T03:04:35;-3.80;69.04
78896;HTU21D;68284;59.124;37.910;2023-03-14T03:07:10;-3.74;68.97
78896;HTU21D;68284;59.124;37.910;2023-03-14T03:09:42;-3.67;68.87
78896;HTU21D;68284;59.124;37.910;2023-03-14T03:12:12;-3.57;68.75
78896;HTU21D;68284;59.124;37.910;2023-03-14T03:14:39;-3.52;68.63
78896;HTU21D;68284;59.124;37.910;2023-03-14T03:17:05;-3.46;68.39
78896;HTU21D;68284;59.124;37.910;2023-03-14T03:19:34;-3.39;68.30
78896;HTU21D;68284;59.124;37.910;2023-03-14T03:22:01;-3.33;68.16
78896;HTU21D;68284;59.124;37.910;2023-03-14T03:24:27;-3.25;68.07
78896;HTU21D;68284;59.124;37.910;2023-03-14T03:26:55;-3.18;67.92
78896;HTU21D;68284;59.124;37.910;2023-03-14T03:29:22;-3.10;67.72
78896;HTU21D;68284;59.124;37.910;2023-03-14T03:31:50;-3.03;67.61
78896;HTU21D;68284;59.124;37.910;2023-03-14T03:34:18;-2.97;67.52
78896;HTU21D;68284;59.124;37.910;2023-03-14T03:36:51;-2.88;67.39
78896;HTU21D;68284;59.124;37.910;2023-03-14T03:39:21;-2.80;67.26
78896;HTU21D;68284;59.124;37.910;2023-03-14T03:41:51;-2.73;67.19
78896;HTU21D;68284;59.124;37.910;2023-03-14T03:44:22;-2.65;67.10
78896;HTU21D;68284;59.124;37.910;2023-03-14T03:46:51;-2.60;66.93
78896;HTU21D;68284;59.124;37.910;2023-03-14T03:49:20;-2.53;66.81
78896;HTU21D;68284;59.124;37.910;2023-03-14T03:51:49;-2.49;66.65
78896;HTU21D;68284;59.124;37.910;2023-03-14T03:54:18;-2.44;66.57
78896;HTU21D;68284;59.124;37.910;2023-03-14T03:56:45;-2.41;66.43
78896;HTU21D;68284;59.124;37.910;2023-03-14T03:59:19;-2.36;66.21
78896;HTU21D;68284;59.124;37.910;2023-03-14T04:01:46;-2.37;66.24
78896;HTU21D;68284;59.124;37.910;2023-03-14T04:04:14;-2.39;66.64
78896;HTU21D;68284;59.124;37.910;2023-03-14T04:06:40;-2.42;67.11
78896;HTU21D;68284;59.124;37.910;2023-03-14T04:09:10;-2.50;67.46
78896;HTU21D;68284;59.124;37.910;2023-03-14T04:11:48;-2.54;67.95
78896;HTU21D;68284;59.124;37.910;2023-03-14T04:14:20;-2.60;68.42
78896;HTU21D;68284;59.124;37.910;2023-03-14T04:16:48;-2.62;68.87
78896;HTU21D;68284;59.124;37.910;2023-03-14T04:19:21;-2.64;69.16
78896;HTU21D;68284;59.124;37.910;2023-03-14T04:21:48;-2.66;69.16
78896;HTU21D;68284;59.124;37.910;2023-03-14T04:24:14;-2.63;69.52
78896;HTU21D;68284;59.124;37.910;2023-03-14T04:26:44;-2.59;69.50
78896;HTU21D;68284;59.124;37.910;2023-03-14T04:29:11;-2.59;69.88
78896;HTU21D;68284;59.124;37.910;2023-03-14T04:31:39;-2.59;69.94
78896;HTU21D;68284;59.124;37.910;2023-03-14T04:34:05;-2.58;70.20
78896;HTU21D;68284;59.124;37.910;2023-03-14T04:36:42;-2.58;70.26
78896;HTU21D;68284;59.124;37.910;2023-03-14T04:39:15;-2.54;70.71
78896;HTU21D;68284;59.124;37.910;2023-03-14T04:41:50;-2.54;70.98
78896;HTU21D;68284;59.124;37.910;2023-03-14T04:44:19;-2.53;71.34
78896;HTU21D;68284;59.124;37.910;2023-03-14T04:46:55;-2.52;71.64
78896;HTU21D;68284;59.124;37.910;2023-03-14T04:49:24;-2.51;71.85
78896;HTU21D;68284;59.124;37.910;2023-03-14T04:51:53;-2.50;72.23
78896;HTU21D;68284;59.124;37.910;2023-03-14T04:54:23;-2.49;72.46
78896;HTU21D;68284;59.124;37.910;2023-03-14T04:56:54;-2.46;72.96
78896;HTU21D;68284;59.124;37.910;2023-03-14T04:59:22;-2.44;72.96
78896;HTU21D;68284;59.124;37.910;2023-03-14T05:01:54;-2.42;73.60
78896;HTU21D;68284;59.124;37.910;2023-03-14T05:04:56;-2.45;74.12
78896;HTU21D;68284;59.124;37.910;2023-03-14T05:07:43;-2.48;74.73
78896;HTU21D;68284;59.124;37.910;2023-03-14T05:10:29;-2.49;75.38
78896;HTU21D;68284;59.124;37.910;2023-03-14T05:13:13;-2.54;76.22
78896;HTU21D;68284;59.124;37.910;2023-03-14T05:15:52;-2.57;76.85
78896;HTU21D;68284;59.124;37.910;2023-03-14T05:18:40;-2.57;77.09
78896;HTU21D;68284;59.124;37.910;2023-03-14T05:21:10;-2.52;77.27
78896;HTU21D;68284;59.124;37.910;2023-03-14T05:23:53;-2.49;77.24
78896;HTU21D;68284;59.124;37.910;2023-03-14T05:26:43;-2.46;77.63
78896;HTU21D;68284;59.124;37.910;2023-03-14T05:29:44;-2.44;78.43
78896;HTU21D;68284;59.124;37.910;2023-03-14T05:32:28;-2.44;78.56
78896;HTU21D;68284;59.124;37.910;2023-03-14T05:35:21;-2.43;78.94
78896;HTU21D;68284;59.124;37.910;2023-03-14T05:38:00;-2.42;78.95
78896;HTU21D;68284;59.124;37.910;2023-03-14T05:40:57;-2.37;79.01
78896;HTU21D;68284;59.124;37.910;2023-03-14T05:43:45;-2.31;79.38
78896;HTU21D;68284;59.124;37.910;2023-03-14T05:46:31;-2.26;79.88
78896;HTU21D;68284;59.124;37.910;2023-03-14T05:49:18;-2.20;79.64
78896;HTU21D;68284;59.124;37.910;2023-03-14T05:52:01;-2.13;79.59
78896;HTU21D;68284;59.124;37.910;2023-03-14T05:54:48;-2.04;79.74
78896;HTU21D;68284;59.124;37.910;2023-03-14T05:57:43;-1.95;79.56
78896;HTU21D;68284;59.124;37.910;2023-03-14T06:00:33;-1.85;79.30
78896;HTU21D;68284;59.124;37.910;2023-03-14T06:03:13;-1.83;79.31
78896;HTU21D;68284;59.124;37.910;2023-03-14T06:05:44;-1.85;79.24
78896;HTU21D;68284;59.124;37.910;2023-03-14T06:08:10;-1.82;79.53
78896;HTU21D;68284;59.124;37.910;2023-03-14T06:10:37;-1.80;79.60
78896;HTU21D;68284;59.124;37.910;2023-03-14T06:13:03;-1.82;79.75
78896;HTU21D;68284;59.124;37.910;2023-03-14T06:15:33;-1.76;79.74
78896;HTU21D;68284;59.124;37.910;2023-03-14T06:18:02;-1.73;79.81
78896;HTU21D;68284;59.124;37.910;2023-03-14T06:20:28;-1.69;80.26
78896;HTU21D;68284;59.124;37.910;2023-03-14T06:22:55;-1.69;80.28
78896;HTU21D;68284;59.124;37.910;2023-03-14T06:25:21;-1.65;80.32
78896;HTU21D;68284;59.124;37.910;2023-03-14T06:27:48;-1.63;80.37
78896;HTU21D;68284;59.124;37.910;2023-03-14T06:30:16;-1.59;80.48
78896;HTU21D;68284;59.124;37.910;2023-03-14T06:32:43;-1.54;80.52
78896;HTU21D;68284;59.124;37.910;2023-03-14T06:35:12;-1.50;80.48
78896;HTU21D;68284;59.124;37.910;2023-03-14T06:37:42;-1.47;80.59
78896;HTU21D;68284;59.124;37.910;2023-03-14T06:40:11;-1.47;80.88
78896;HTU21D;68284;59.124;37.910;2023-03-14T06:42:49;-1.43;81.10
78896;HTU21D;68284;59.124;37.910;2023-03-14T06:45:17;-1.35;81.15
78896;HTU21D;68284;59.124;37.910;2023-03-14T06:47:50;-1.27;81.07
78896;HTU21D;68284;59.124;37.910;2023-03-14T06:50:20;-1.24;81.10
78896;HTU21D;68284;59.124;37.910;2023-03-14T06:52:49;-1.18;81.21
78896;HTU21D;68284;59.124;37.910;2023-03-14T06:55:25;-1.13;81.31
78896;HTU21D;68284;59.124;37.910;2023-03-14T06:58:01;-1.08;81.21
78896;HTU21D;68284;59.124;37.910;2023-03-14T07:00:31;-1.02;81.24
78896;HTU21D;68284;59.124;37.910;2023-03-14T07:02:57;-0.96;81.19
78896;HTU21D;68284;59.124;37.910;2023-03-14T07:05:30;-0.87;81.20
78896;HTU21D;68284;59.124;37.910;2023-03-14T07:07:56;-0.77;81.18
78896;HTU21D;68284;59.124;37.910;2023-03-14T07:10:25;-0.70;81.23
78896;HTU21D;68284;59.124;37.910;2023-03-14T07:12:55;-0.59;81.16
78896;HTU21D;68284;59.124;37.910;2023-03-14T07:15:30;-0.47;80.94
78896;HTU21D;68284;59.124;37.910;2023-03-14T07:18:02;-0.37;80.75
78896;HTU21D;68284;59.124;37.910;2023-03-14T07:20:30;-0.36;80.78
78896;HTU21D;68284;59.124;37.910;2023-03-14T07:23:00;-0.31;80.87
78896;HTU21D;68284;59.124;37.910;2023-03-14T07:25:53;-0.20;80.78
78896;HTU21D;68284;59.124;37.910;2023-03-14T07:28:25;-0.09;80.59
78896;HTU21D;68284;59.124;37.910;2023-03-14T07:31:02;-0.06;80.49
78896;HTU21D;68284;59.124;37.910;2023-03-14T07:33:34;-0.00;80.60
78896;HTU21D;68284;59.124;37.910;2023-03-14T07:36:03;0.07;80.49
78896;HTU21D;68284;59.124;37.910;2023-03-14T07:38:32;0.15;80.49
78896;HTU21D;68284;59.124;37.910;2023-03-14T07:41:26;0.21;80.32
78896;HTU21D;68284;59.124;37.910;2023-03-14T07:44:26;0.34;80.20
78896;HTU21D;68284;59.124;37.910;2023-03-14T07:46:58;0.46;79.98
78896;HTU21D;68284;59.124;37.910;2023-03-14T07:49:45;0.54;79.66
78896;HTU21D;68284;59.124;37.910;2023-03-14T07:52:13;0.57;79.59
78896;HTU21D;68284;59.124;37.910;2023-03-14T07:54:44;0.54;79.69
78896;HTU21D;68284;59.124;37.910;2023-03-14T07:57:23;0.53;79.89
78896;HTU21D;68284;59.124;37.910;2023-03-14T07:59:52;0.60;79.87
78896;HTU21D;68284;59.124;37.910;2023-03-14T08:02:20;0.65;79.76
78896;HTU21D;68284;59.124;37.910;2023-03-14T08:04:51;0.68;79.75
78896;HTU21D;68284;59.124;37.910;2023-03-14T08:07:17;0.72;79.78
78896;HTU21D;68284;59.124;37.910;2023-03-14T08:09:45;0.76;79.68
78896;HTU21D;68284;59.124;37.910;2023-03-14T08:12:13;0.77;79.59
78896;HTU21D;68284;59.124;37.910;2023-03-14T08:14:41;0.82;79.63
78896;HTU21D;68284;59.124;37.910;2023-03-14T08:17:08;0.91;79.48
78896;HTU21D;68284;59.124;37.910;2023-03-14T08:19:36;0.94;79.24
78896;HTU21D;68284;59.124;37.910;2023-03-14T08:22:03;0.97;79.21
78896;HTU21D;68284;59.124;37.910;2023-03-14T08:24:31;1.02;79.22
78896;HTU21D;68284;59.124;37.910;2023-03-14T08:26:57;1.03;79.01
78896;HTU21D;68284;59.124;37.910;2023-03-14T08:29:27;0.99;79.05
78896;HTU21D;68284;59.124;37.910;2023-03-14T08:31:53;0.93;79.12
78896;HTU21D;68284;59.124;37.910;2023-03-14T08:34:24;0.88;79.33
78896;HTU21D;68284;59.124;37.910;2023-03-14T08:36:51;0.86;79.61
78896;HTU21D;68284;59.124;37.910;2023-03-14T08:39:19;0.88;79.81
78896;HTU21D;68284;59.124;37.910;2023-03-14T08:41:45;0.90;79.95
78896;HTU21D;68284;59.124;37.910;2023-03-14T08:44:13;0.89;80.00
78896;HTU21D;68284;59.124;37.910;2023-03-14T08:46:39;0.92;80.01
78896;HTU21D;68284;59.124;37.910;2023-03-14T08:49:07;0.95;80.19
78896;HTU21D;68284;59.124;37.910;2023-03-14T08:51:34;0.98;80.07
78896;HTU21D;68284;59.124;37.910;2023-03-14T08:54:03;1.01;80.20
78896;HTU21D;68284;59.124;37.910;2023-03-14T08:56:31;1.06;80.26
78896;HTU21D;68284;59.124;37.910;2023-03-14T08:59:01;1.17;80.36
78896;HTU21D;68284;59.124;37.910;2023-03-14T09:01:41;1.27;80.18
78896;HTU21D;68284;59.124;37.910;2023-03-14T09:04:07;1.37;80.11
78896;HTU21D;68284;59.124;37.910;2023-03-14T09:06:34;1.42;80.21
78896;HTU21D;68284;59.124;37.910;2023-03-14T09:09:01;1.45;80.31
78896;HTU21D;68284;59.124;37.910;2023-03-14T09:11:27;1.47;80.44
78896;HTU21D;68284;59.124;37.910;2023-03-14T09:13:54;1.49;80.66
78896;HTU21D;68284;59.124;37.910;2023-03-14T09:16:20;1.55;80.85
78896;HTU21D;68284;59.124;37.910;2023-03-14T09:18:48;1.62;80.62
78896;HTU21D;68284;59.124;37.910;2023-03-14T09:21:17;1.70;80.72
78896;HTU21D;68284;59.124;37.910;2023-03-14T09:23:43;1.72;81.08
78896;HTU21D;68284;59.124;37.910;2023-03-14T09:26:13;1.78;81.34
78896;HTU21D;68284;59.124;37.910;2023-03-14T09:28:40;1.81;81.26
78896;HTU21D;68284;59.124;37.910;2023-03-14T09:31:08;1.91;81.39
78896;HTU21D;68284;59.124;37.910;2023-03-14T09:33:36;1.98;81.65
78896;HTU21D;68284;59.124;37.910;2023-03-14T09:36:03;2.03;81.88
78896;HTU21D;68284;59.124;37.910;2023-03-14T09:38:31;2.07;81.99
78896;HTU21D;68284;59.124;37.910;2023-03-14T09:41:01;2.11;82.02
78896;HTU21D;68284;59.124;37.910;2023-03-14T09:43:31;2.14;82.23
78896;HTU21D;68284;59.124;37.910;2023-03-14T09:46:01;2.15;82.49
78896;HTU21D;68284;59.124;37.910;2023-03-14T09:48:32;2.16;82.94
78896;HTU21D;68284;59.124;37.910;2023-03-14T09:51:06;2.22;83.16
78896;HTU21D;68284;59.124;37.910;2023-03-14T09:53:40;2.29;83.04
78896;HTU21D;68284;59.124;37.910;2023-03-14T09:56:23;2.40;83.09
78896;HTU21D;68284;59.124;37.910;2023-03-14T09:59:05;2.50;83.19
78896;HTU21D;68284;59.124;37.910;2023-03-14T10:01:39;2.59;83.05
78896;HTU21D;68284;59.124;37.910;2023-03-14T10:04:31;2.71;83.06
78896;HTU21D;68284;59.124;37.910;2023-03-14T10:07:02;2.78;83.00
78896;HTU21D;68284;59.124;37.910;2023-03-14T10:09:34;2.84;82.97
78896;HTU21D;68284;59.124;37.910;2023-03-14T10:12:02;2.89;82.85
78896;HTU21D;68284;59.124;37.910;2023-03-14T10:14:36;2.91;82.79
78896;HTU21D;68284;59.124;37.910;2023-03-14T10:17:11;2.95;82.91
78896;HTU21D;68284;59.124;37.910;2023-03-14T10:19:54;2.96;83.16
78896;HTU21D;68284;59.124;37.910;2023-03-14T10:22:24;2.96;83.31
78896;HTU21D;68284;59.124;37.910;2023-03-14T10:24:57;2.93;83.50
78896;HTU21D;68284;59.124;37.910;2023-03-14T10:27:36;2.90;83.69
78896;HTU21D;68284;59.124;37.910;2023-03-14T10:33:26;2.93;84.14
78896;HTU21D;68284;59.124;37.910;2023-03-14T10:35:57;2.93;84.30
78896;HTU21D;68284;59.124;37.910;2023-03-14T10:38:33;2.95;84.39
78896;HTU21D;68284;59.124;37.910;2023-03-14T10:41:00;2.99;84.34
78896;HTU21D;68284;59.124;37.910;2023-03-14T10:43:30;3.02;84.65
78896;HTU21D;68284;59.124;37.910;2023-03-14T10:46:06;3.06;84.41
78896;HTU21D;68284;59.124;37.910;2023-03-14T10:48:55;3.08;84.52
78896;HTU21D;68284;59.124;37.910;2023-03-14T10:51:27;3.11;84.77
78896;HTU21D;68284;59.124;37.910;2023-03-14T10:54:13;3.15;84.82
78896;HTU21D;68284;59.124;37.910;2023-03-14T10:56:40;3.21;84.79
78896;HTU21D;68284;59.124;37.910;2023-03-14T10:59:15;3.31;84.77
78896;HTU21D;68284;59.124;37.910;2023-03-14T11:02:01;3.39;84.81
78896;HTU21D;68284;59.124;37.910;2023-03-14T11:07:39;3.56;84.58
78896;HTU21D;68284;59.124;37.910;2023-03-14T11:10:18;3.63;84.26
78896;HTU21D;68284;59.124;37.910;2023-03-14T11:20:45;3.80;84.13
78896;HTU21D;68284;59.124;37.910;2023-03-14T11:23:18;3.85;83.99
78896;HTU21D;68284;59.124;37.910;2023-03-14T11:26:00;3.86;83.98
78896;HTU21D;68284;59.124;37.910;2023-03-14T11:28:38;3.93;84.00
78896;HTU21D;68284;59.124;37.910;2023-03-14T11:31:28;3.99;83.90
78896;HTU21D;68284;59.124;37.910;2023-03-14T11:34:16;4.01;83.76
78896;HTU21D;68284;59.124;37.910;2023-03-14T11:40:17;4.05;83.81
78896;HTU21D;68284;59.124;37.910;2023-03-14T11:42:49;4.09;83.83
78896;HTU21D;68284;59.124;37.910;2023-03-14T11:45:39;4.19;83.82
78896;HTU21D;68284;59.124;37.910;2023-03-14T11:50:48;4.33;83.47
78896;HTU21D;68284;59.124;37.910;2023-03-14T11:56:25;4.37;83.37
78896;HTU21D;68284;59.124;37.910;2023-03-14T11:58:58;4.38;83.45
78896;HTU21D;68284;59.124;37.910;2023-03-14T12:01:36;4.42;83.47
78896;HTU21D;68284;59.124;37.910;2023-03-14T12:04:22;4.46;83.54
78896;HTU21D;68284;59.124;37.910;2023-03-14T12:06:52;4.50;83.56
78896;HTU21D;68284;59.124;37.910;2023-03-14T12:09:20;4.57;83.52
78896;HTU21D;68284;59.124;37.910;2023-03-14T12:11:59;4.63;83.52
78896;HTU21D;68284;59.124;37.910;2023-03-14T12:14:30;4.71;83.36
78896;HTU21D;68284;59.124;37.910;2023-03-14T12:19:41;4.88;83.14
78896;HTU21D;68284;59.124;37.910;2023-03-14T12:22:17;4.94;82.99
78896;HTU21D;68284;59.124;37.910;2023-03-14T12:24:55;5.00;82.83
78896;HTU21D;68284;59.124;37.910;2023-03-14T12:28:03;5.03;82.80
78896;HTU21D;68284;59.124;37.910;2023-03-14T12:30:40;5.07;82.70
78896;HTU21D;68284;59.124;37.910;2023-03-14T12:35:42;5.21;82.50
78896;HTU21D;68284;59.124;37.910;2023-03-14T12:43:43;5.36;82.13
78896;HTU21D;68284;59.124;37.910;2023-03-14T12:48:39;5.43;81.98
78896;HTU21D;68284;59.124;37.910;2023-03-14T12:51:14;5.47;81.93
78896;HTU21D;68284;59.124;37.910;2023-03-14T12:54:09;5.47;81.98
78896;HTU21D;68284;59.124;37.910;2023-03-14T13:04:34;5.46;81.91
78896;HTU21D;68284;59.124;37.910;2023-03-14T13:07:02;5.46;81.97
78896;HTU21D;68284;59.124;37.910;2023-03-14T13:12:02;5.41;82.13
78896;HTU21D;68284;59.124;37.910;2023-03-14T13:14:31;5.39;82.22
78896;HTU21D;68284;59.124;37.910;2023-03-14T13:17:30;5.40;82.20
78896;HTU21D;68284;59.124;37.910;2023-03-14T13:20:03;5.40;82.26
78896;HTU21D;68284;59.124;37.910;2023-03-14T13:22:33;5.41;82.23
78896;HTU21D;68284;59.124;37.910;2023-03-14T13:25:07;5.42;82.23
78896;HTU21D;68284;59.124;37.910;2023-03-14T13:27:35;5.42;82.22
78896;HTU21D;68284;59.124;37.910;2023-03-14T13:30:20;5.45;82.22
78896;HTU21D;68284;59.124;37.910;2023-03-14T13:32:48;5.45;82.31
78896;HTU21D;68284;59.124;37.910;2023-03-14T13:35:21;5.45;82.28
78896;HTU21D;68284;59.124;37.910;2023-03-14T13:37:56;5.46;82.39
78896;HTU21D;68284;59.124;37.910;2023-03-14T13:40:33;5.46;82.47
78896;HTU21D;68284;59.124;37.910;2023-03-14T13:43:20;5.48;82.49
78896;HTU21D;68284;59.124;37.910;2023-03-14T13:45:52;5.48;82.43
78896;HTU21D;68284;59.124;37.910;2023-03-14T13:48:21;5.46;82.48
78896;HTU21D;68284;59.124;37.910;2023-03-14T13:50:53;5.48;82.48
78896;HTU21D;68284;59.124;37.910;2023-03-14T13:53:20;5.48;82.61
78896;HTU21D;68284;59.124;37.910;2023-03-14T13:55:46;5.48;82.69
78896;HTU21D;68284;59.124;37.910;2023-03-14T13:58:29;5.46;82.74
78896;HTU21D;68284;59.124;37.910;2023-03-14T14:00:58;5.43;82.73
78896;HTU21D;68284;59.124;37.910;2023-03-14T14:03:26;5.43;82.81
78896;HTU21D;68284;59.124;37.910;2023-03-14T14:05:55;5.43;82.86
78896;HTU21D;68284;59.124;37.910;2023-03-14T14:08:23;5.42;82.94
78896;HTU21D;68284;59.124;37.910;2023-03-14T14:10:49;5.43;82.93
78896;HTU21D;68284;59.124;37.910;2023-03-14T14:13:20;5.43;82.95
78896;HTU21D;68284;59.124;37.910;2023-03-14T14:15:49;5.46;82.91
78896;HTU21D;68284;59.124;37.910;2023-03-14T14:18:20;5.48;82.89
78896;HTU21D;68284;59.124;37.910;2023-03-14T14:20:49;5.49;82.94
78896;HTU21D;68284;59.124;37.910;2023-03-14T14:23:26;5.51;82.94
78896;HTU21D;68284;59.124;37.910;2023-03-14T14:25:56;5.51;82.87
78896;HTU21D;68284;59.124;37.910;2023-03-14T14:28:35;5.51;82.78
78896;HTU21D;68284;59.124;37.910;2023-03-14T14:31:17;5.49;82.78
78896;HTU21D;68284;59.124;37.910;2023-03-14T14:36:25;5.48;82.68
78896;HTU21D;68284;59.124;37.910;2023-03-14T14:39:04;5.46;82.75
78896;HTU21D;68284;59.124;37.910;2023-03-14T14:41:35;5.46;82.68
78896;HTU21D;68284;59.124;37.910;2023-03-14T14:44:05;5.43;82.65
78896;HTU21D;68284;59.124;37.910;2023-03-14T14:46:33;5.45;82.64
78896;HTU21D;68284;59.124;37.910;2023-03-14T14:49:09;5.46;82.61
78896;HTU21D;68284;59.124;37.910;2023-03-14T14:51:43;5.47;82.55
78896;HTU21D;68284;59.124;37.910;2023-03-14T14:54:14;5.48;82.55
78896;HTU21D;68284;59.124;37.910;2023-03-14T14:56:52;5.49;82.49
78896;HTU21D;68284;59.124;37.910;2023-03-14T14:59:27;5.50;82.52
78896;HTU21D;68284;59.124;37.910;2023-03-14T15:01:57;5.49;82.44
78896;HTU21D;68284;59.124;37.910;2023-03-14T15:04:23;5.50;82.46
78896;HTU21D;68284;59.124;37.910;2023-03-14T15:06:50;5.51;82.44
78896;HTU21D;68284;59.124;37.910;2023-03-14T15:09:20;5.52;82.39
78896;HTU21D;68284;59.124;37.910;2023-03-14T15:12:01;5.53;82.39
78896;HTU21D;68284;59.124;37.910;2023-03-14T15:14:27;5.54;82.40
78896;HTU21D;68284;59.124;37.910;2023-03-14T15:16:53;5.54;82.31
78896;HTU21D;68284;59.124;37.910;2023-03-14T15:19:22;5.56;82.36
78896;HTU21D;68284;59.124;37.910;2023-03-14T15:21:52;5.55;82.30
78896;HTU21D;68284;59.124;37.910;2023-03-14T15:24:19;5.55;82.23
78896;HTU21D;68284;59.124;37.910;2023-03-14T15:26:45;5.56;82.24
78896;HTU21D;68284;59.124;37.910;2023-03-14T15:29:11;5.57;82.23
78896;HTU21D;68284;59.124;37.910;2023-03-14T15:31:40;5.57;82.24
78896;HTU21D;68284;59.124;37.910;2023-03-14T15:34:07;5.56;82.21
78896;HTU21D;68284;59.124;37.910;2023-03-14T15:36:35;5.56;82.16
78896;HTU21D;68284;59.124;37.910;2023-03-14T15:39:04;5.56;82.17
78896;HTU21D;68284;59.124;37.910;2023-03-14T15:41:30;5.57;82.18
78896;HTU21D;68284;59.124;37.910;2023-03-14T15:43:57;5.57;82.20
78896;HTU21D;68284;59.124;37.910;2023-03-14T15:46:23;5.56;82.20
78896;HTU21D;68284;59.124;37.910;2023-03-14T15:48:51;5.55;82.26
78896;HTU21D;68284;59.124;37.910;2023-03-14T15:51:18;5.57;82.29
78896;HTU21D;68284;59.124;37.910;2023-03-14T15:53:45;5.59;82.23
78896;HTU21D;68284;59.124;37.910;2023-03-14T15:56:13;5.59;82.20
78896;HTU21D;68284;59.124;37.910;2023-03-14T15:58:40;5.61;82.18
78896;HTU21D;68284;59.124;37.910;2023-03-14T16:01:08;5.63;82.13
78896;HTU21D;68284;59.124;37.910;2023-03-14T16:03:36;5.62;82.05
78896;HTU21D;68284;59.124;37.910;2023-03-14T16:06:02;5.63;82.02
78896;HTU21D;68284;59.124;37.910;2023-03-14T16:08:29;5.64;82.01
78896;HTU21D;68284;59.124;37.910;2023-03-14T16:10:58;5.64;81.96
78896;HTU21D;68284;59.124;37.910;2023-03-14T16:13:25;5.64;81.94
78896;HTU21D;68284;59.124;37.910;2023-03-14T16:15:55;5.64;81.88
78896;HTU21D;68284;59.124;37.910;2023-03-14T16:18:21;5.66;81.70
78896;HTU21D;68284;59.124;37.910;2023-03-14T16:20:56;5.66;81.63
78896;HTU21D;68284;59.124;37.910;2023-03-14T16:23:23;5.66;81.58
78896;HTU21D;68284;59.124;37.910;2023-03-14T16:25:51;5.66;81.52
78896;HTU21D;68284;59.124;37.910;2023-03-14T16:28:17;5.65;81.47
78896;HTU21D;68284;59.124;37.910;2023-03-14T16:30:43;5.66;81.43
78896;HTU21D;68284;59.124;37.910;2023-03-14T16:33:10;5.68;81.27
78896;HTU21D;68284;59.124;37.910;2023-03-14T16:35:38;5.69;81.15
78896;HTU21D;68284;59.124;37.910;2023-03-14T16:38:05;5.70;81.07